Impacts TAF Board INFO
FOR SITUATIONAL AWARENESS. NOT TO BE USED FOR FLIGHT PLANNING PURPOSES.
IDs:

KPHX - Phoenix/Sky Harbor, AZ, US

Issued at 1433 UTC 23 Apr 2017
Updated at 1555 UTC 23 Apr 2017
Potential Impact None Slight Moderate High
Time1551Z 23/16Z 23/17Z 23/18Z 23/19Z 23/20Z 23/21Z 23/22Z 23/23Z 24/00Z 24/01Z 24/02Z 24/03Z 24/04Z>>
Type OBS PRVL
  [TEMP]  
PRVL
  [TEMP]  
PRVL PRVL PRVL PRVL PRVL PRVL PRVL PRVL PRVL PRVL PRVL
VIS 10 >6 >6 >6 >6 >6 >6 >6 >6 >6 >6 >6 >6 >6
CIG -- --
  [--]  
--
  [--]  
-- -- -- -- -- -- -- -- -- -- --
Cover SCT FEW
  [FEW]  
FEW
  [FEW]  
FEW FEW FEW SCT SCT SCT SCT SCT SCT FEW FEW
FltCat VFR VFR
  [VFR]  
VFR
  [VFR]  
VFR VFR VFR VFR VFR VFR VFR VFR VFR VFR VFR
WX -- --
  [--]  
--
  [--]  
-- -- -- -- -- -- -- -- -- -- --
WDir 110 100
[110]
100
[110]
100 100 100 230 230 230 230 230 230 250 250
WSpd 7 9
  [11]  
9
  [11]  
9 9 9 9 9 9 9 9 9 8 8
WGst -- --
  [20]  
--
  [20]  
-- -- -- 17 17 17 17 17 17 -- --

Raw TAF
KPHX 231433Z 2315/2412 10009KT P6SM FEW250
  TEMPO 2315/2318 11011G20KT
  FM232100 23009G17KT P6SM SCT250
  FM240300 25008KT P6SM FEW250
  FM241000 10010KT P6SM FEW250


Raw METAR
KPHX 231551Z 11007KT 10SM SCT250 26/M01 A2983 RMK AO2 SLP084 T02611011
KPHX 231451Z 10007KT 10SM SCT250 23/M02 A2982 RMK AO2 SLP082 T02331022 53018
KPHX 231351Z 12009KT 10SM SCT250 22/M02 A2981 RMK AO2 SLP078 T02171017
KPHX 231251Z 10008KT 10SM FEW150 SCT180 20/M02 A2978 RMK AO2 SLP067 T02001017

METAR Board
Radar Display
Forecast Discussion

FOR SITUATIONAL AWARENESS. NOT TO BE USED FOR FLIGHT PLANNING PURPOSES.

Page loaded:  15:55 UTC  |   08:55 AM Pacific  |   09:55 AM Mountain  |   10:55 AM Central  |   11:55 AM Eastern

 

ADVISORIES

FORECASTS

FORECASTS

OBSERVATIONS

USER TOOLS

ABOUT US